Time,TemperatureF,DewpointF,PressureIn,WindDirection,WindDirectionDegrees,WindSpeedMPH,WindSpeedGustMPH,Humidity,HourlyPrecipIn,Conditions,Clouds,dailyrainin,SoftwareType,DateUTC
2013-06-27 00:01:00,69.7,67.3,29.84,East,94,0.0,0.0,92,0.00,,,0.00,WeatherCatV1.02B3,2013-06-27 04:01:00,
2013-06-27 00:06:00,69.6,67.2,29.84,East,94,0.0,0.0,92,0.00,,,0.00,WeatherCatV1.02B3,2013-06-27 04:06:00,
2013-06-27 00:11:00,69.6,67.2,29.84,East,94,0.0,0.0,92,0.00,,,0.00,WeatherCatV1.02B3,2013-06-27 04:11:00,
2013-06-27 00:16:00,69.4,67.0,29.84,East,94,0.0,0.0,92,0.00,,,0.00,WeatherCatV1.02B3,2013-06-27 04:16:00,
2013-06-27 00:21:00,69.3,66.9,29.84,East,94,0.0,1.0,92,0.00,,,0.00,WeatherCatV1.02B3,2013-06-27 04:21:00,
2013-06-27 00:26:00,69.1,66.7,29.84,East,94,0.0,0.0,92,0.00,,,0.00,WeatherCatV1.02B3,2013-06-27 04:26:00,
2013-06-27 00:31:00,68.9,66.5,29.84,East,94,0.0,0.0,92,0.00,,,0.00,WeatherCatV1.02B3,2013-06-27 04:31:00,
2013-06-27 00:36:00,68.7,66.3,29.84,East,94,0.0,0.0,92,0.00,,,0.00,WeatherCatV1.02B3,2013-06-27 04:36:00,
2013-06-27 00:41:00,68.6,66.5,29.84,East,94,0.0,0.0,93,0.00,,,0.00,WeatherCatV1.02B3,2013-06-27 04:41:00,
2013-06-27 00:46:00,68.5,66.4,29.84,ENE,77,0.0,0.0,93,0.00,,,0.00,WeatherCatV1.02B3,2013-06-27 04:46:00,
2013-06-27 00:51:00,68.4,66.3,29.83,ENE,77,0.0,0.0,93,0.00,,,0.00,WeatherCatV1.02B3,2013-06-27 04:51:00,
2013-06-27 00:56:00,68.3,66.2,29.83,ENE,77,0.0,1.0,93,0.00,,,0.00,WeatherCatV1.02B3,2013-06-27 04:56:00,
2013-06-27 01:01:00,68.1,66.0,29.83,ENE,77,0.0,0.0,93,0.00,,,0.00,WeatherCatV1.02B3,2013-06-27 05:01:00,
2013-06-27 01:04:00,68.1,66.0,29.83,ENE,77,0.0,1.0,93,0.00,,,0.00,WeatherCatV1.02B3,2013-06-27 05:04:00,
2013-06-27 01:09:00,68.0,65.9,29.83,ENE,77,0.0,0.0,93,0.00,,,0.00,WeatherCatV1.02B3,2013-06-27 05:09:00,
2013-06-27 01:14:00,67.8,65.7,29.83,ENE,77,0.0,0.0,93,0.00,,,0.00,WeatherCatV1.02B3,2013-06-27 05:14:00,
2013-06-27 01:19:00,67.7,65.6,29.83,ENE,77,0.0,0.0,93,0.00,,,0.00,WeatherCatV1.02B3,2013-06-27 05:19:00,
2013-06-27 01:24:00,67.7,65.6,29.83,ENE,78,0.0,1.0,93,0.00,,,0.00,WeatherCatV1.02B3,2013-06-27 05:24:00,
2013-06-27 01:29:00,67.6,65.5,29.83,ENE,78,0.0,0.0,93,0.00,,,0.00,WeatherCatV1.02B3,2013-06-27 05:29:00,
2013-06-27 01:34:00,67.5,65.4,29.83,ENE,78,0.0,1.0,93,0.00,,,0.00,WeatherCatV1.02B3,2013-06-27 05:34:00,
2013-06-27 01:39:00,67.5,65.7,29.83,ENE,78,0.0,1.0,94,0.00,,,0.00,WeatherCatV1.02B3,2013-06-27 05:39:00,
2013-06-27 01:45:00,67.3,65.5,29.83,ENE,78,0.0,0.0,94,0.00,,,0.00,WeatherCatV1.02B3,2013-06-27 05:45:00,
2013-06-27 01:50:00,67.3,65.2,29.83,ENE,78,0.0,0.0,93,0.00,,,0.00,WeatherCatV1.02B3,2013-06-27 05:50:00,
2013-06-27 01:55:00,67.1,65.0,29.83,ENE,78,0.0,0.0,93,0.00,,,0.00,WeatherCatV1.02B3,2013-06-27 05:55:00,
2013-06-27 02:00:00,67.0,64.9,29.83,ENE,78,0.0,0.0,93,0.00,,,0.00,WeatherCatV1.02B3,2013-06-27 06:00:00,
2013-06-27 02:05:00,67.0,65.2,29.83,ENE,78,0.0,0.0,94,0.00,,,0.00,WeatherCatV1.02B3,2013-06-27 06:05:00,
2013-06-27 02:10:00,67.0,65.2,29.83,ENE,78,0.0,0.0,94,0.00,,,0.00,WeatherCatV1.02B3,2013-06-27 06:10:00,
2013-06-27 02:15:00,67.0,65.2,29.82,ENE,78,0.0,0.0,94,0.00,,,0.00,WeatherCatV1.02B3,2013-06-27 06:15:00,
2013-06-27 02:20:00,67.0,65.2,29.83,ENE,78,0.0,0.0,94,0.00,,,0.00,WeatherCatV1.02B3,2013-06-27 06:20:00,
2013-06-27 02:25:00,67.0,65.2,29.83,ENE,78,0.0,0.0,94,0.00,,,0.00,WeatherCatV1.02B3,2013-06-27 06:25:00,
2013-06-27 02:30:00,67.1,65.3,29.82,ENE,78,0.0,0.0,94,0.00,,,0.00,WeatherCatV1.02B3,2013-06-27 06:30:00,
2013-06-27 02:35:00,67.1,65.3,29.82,ENE,78,0.0,1.0,94,0.00,,,0.00,WeatherCatV1.02B3,2013-06-27 06:35:00,
2013-06-27 02:40:00,67.0,65.2,29.82,ENE,78,0.0,0.0,94,0.00,,,0.00,WeatherCatV1.02B3,2013-06-27 06:40:00,
2013-06-27 02:45:00,67.0,65.2,29.82,ENE,78,0.0,0.0,94,0.00,,,0.00,WeatherCatV1.02B3,2013-06-27 06:45:00,
2013-06-27 02:50:00,67.1,65.3,29.82,ENE,78,0.0,0.0,94,0.00,,,0.00,WeatherCatV1.02B3,2013-06-27 06:50:00,
2013-06-27 02:55:00,67.1,65.3,29.82,ENE,78,0.0,0.0,94,0.00,,,0.00,WeatherCatV1.02B3,2013-06-27 06:55:00,
2013-06-27 03:00:00,67.0,65.2,29.82,ENE,78,0.0,0.0,94,0.00,,,0.00,WeatherCatV1.02B3,2013-06-27 07:00:00,
2013-06-27 03:05:00,67.0,65.2,29.82,ENE,78,0.0,1.0,94,0.00,,,0.00,WeatherCatV1.02B3,2013-06-27 07:05:00,
2013-06-27 03:10:00,67.0,65.2,29.82,ENE,78,0.0,0.0,94,0.00,,,0.00,WeatherCatV1.02B3,2013-06-27 07:10:00,
2013-06-27 03:15:00,67.1,65.3,29.82,ENE,78,0.0,0.0,94,0.00,,,0.00,WeatherCatV1.02B3,2013-06-27 07:15:00,
2013-06-27 03:20:00,67.1,65.3,29.82,ENE,78,0.0,0.0,94,0.00,,,0.00,WeatherCatV1.02B3,2013-06-27 07:20:00,
2013-06-27 03:25:00,67.1,65.3,29.82,ENE,78,0.0,0.0,94,0.00,,,0.00,WeatherCatV1.02B3,2013-06-27 07:25:00,
2013-06-27 03:30:00,67.1,65.3,29.82,ENE,78,0.0,0.0,94,0.00,,,0.00,WeatherCatV1.02B3,2013-06-27 07:30:00,
2013-06-27 03:35:00,67.2,65.4,29.82,ENE,78,0.0,1.0,94,0.00,,,0.00,WeatherCatV1.02B3,2013-06-27 07:35:00,
2013-06-27 03:40:00,67.1,65.3,29.81,ENE,78,0.0,0.0,94,0.00,,,0.00,WeatherCatV1.02B3,2013-06-27 07:40:00,
2013-06-27 03:45:00,67.1,65.3,29.81,ENE,78,0.0,0.0,94,0.00,,,0.00,WeatherCatV1.02B3,2013-06-27 07:45:00,
2013-06-27 03:50:00,67.1,65.3,29.81,ENE,78,0.0,0.0,94,0.00,,,0.00,WeatherCatV1.02B3,2013-06-27 07:50:00,
2013-06-27 03:55:00,67.1,65.3,29.81,ENE,78,0.0,0.0,94,0.00,,,0.00,WeatherCatV1.02B3,2013-06-27 07:55:00,
2013-06-27 04:00:00,67.1,65.3,29.80,ENE,78,0.0,1.0,94,0.00,,,0.00,WeatherCatV1.02B3,2013-06-27 08:00:00,
2013-06-27 04:05:00,67.1,65.3,29.81,ENE,78,0.0,0.0,94,0.00,,,0.00,WeatherCatV1.02B3,2013-06-27 08:05:00,
2013-06-27 04:10:00,67.1,65.3,29.81,NNE,31,0.0,4.0,94,0.00,,,0.00,WeatherCatV1.02B3,2013-06-27 08:10:00,
2013-06-27 04:17:00,67.0,65.2,29.80,NNE,31,0.0,0.0,94,0.00,,,0.00,WeatherCatV1.02B3,2013-06-27 08:17:00,
2013-06-27 04:22:00,66.9,65.1,29.80,NNE,31,0.0,0.0,94,0.00,,,0.00,WeatherCatV1.02B3,2013-06-27 08:22:00,
2013-06-27 04:27:00,66.9,65.1,29.80,NNE,31,0.0,0.0,94,0.00,,,0.00,WeatherCatV1.02B3,2013-06-27 08:27:00,
2013-06-27 04:32:00,66.8,65.0,29.80,NNE,31,0.0,0.0,94,0.00,,,0.00,WeatherCatV1.02B3,2013-06-27 08:32:00,
2013-06-27 04:37:00,66.8,65.0,29.80,NNE,31,0.0,0.0,94,0.00,,,0.00,WeatherCatV1.02B3,2013-06-27 08:37:00,
2013-06-27 04:42:00,66.8,65.0,29.80,NNE,31,0.0,0.0,94,0.00,,,0.00,WeatherCatV1.02B3,2013-06-27 08:42:00,
2013-06-27 04:47:00,66.8,65.0,29.80,NNE,31,0.0,0.0,94,0.00,,,0.00,WeatherCatV1.02B3,2013-06-27 08:47:00,
2013-06-27 04:52:00,66.8,65.0,29.80,NNE,31,0.0,0.0,94,0.00,,,0.00,WeatherCatV1.02B3,2013-06-27 08:52:00,
2013-06-27 04:58:00,66.9,65.1,29.80,NNE,29,0.0,0.0,94,0.00,,,0.00,WeatherCatV1.02B3,2013-06-27 08:58:00,
2013-06-27 05:03:00,66.9,65.1,29.81,ESE,113,0.0,1.0,94,0.00,,,0.00,WeatherCatV1.02B3,2013-06-27 09:03:00,
2013-06-27 05:08:00,66.9,65.1,29.81,ENE,65,0.0,0.0,94,0.00,,,0.00,WeatherCatV1.02B3,2013-06-27 09:08:00,
2013-06-27 05:13:00,66.9,65.1,29.81,ENE,65,0.0,1.0,94,0.00,,,0.00,WeatherCatV1.02B3,2013-06-27 09:13:00,
2013-06-27 05:18:00,66.9,65.1,29.82,NE,39,1.0,1.0,94,0.00,,,0.00,WeatherCatV1.02B3,2013-06-27 09:18:00,
2013-06-27 05:23:00,66.8,65.0,29.83,East,84,0.0,1.0,94,0.00,,,0.00,WeatherCatV1.02B3,2013-06-27 09:23:00,
2013-06-27 05:28:00,66.7,64.9,29.83,ENE,65,2.0,5.0,94,0.00,,,0.00,WeatherCatV1.02B3,2013-06-27 09:28:00,
2013-06-27 05:33:00,66.5,64.7,29.83,East,90,0.0,2.0,94,0.00,,,0.00,WeatherCatV1.02B3,2013-06-27 09:33:00,
2013-06-27 05:38:00,66.4,64.6,29.84,East,90,0.0,0.0,94,0.00,,,0.00,WeatherCatV1.02B3,2013-06-27 09:38:00,
2013-06-27 05:43:00,66.4,64.6,29.84,NE,40,0.0,3.0,94,0.00,,,0.00,WeatherCatV1.02B3,2013-06-27 09:43:00,
2013-06-27 05:48:00,66.3,64.5,29.84,NE,40,0.0,1.0,94,0.00,,,0.00,WeatherCatV1.02B3,2013-06-27 09:48:00,
2013-06-27 05:53:00,66.1,64.3,29.84,NE,40,0.0,2.0,94,0.00,,,0.00,WeatherCatV1.02B3,2013-06-27 09:53:00,
2013-06-27 05:58:00,65.8,64.0,29.84,NE,36,0.0,1.0,94,0.00,,,0.00,WeatherCatV1.02B3,2013-06-27 09:58:00,
2013-06-27 06:03:00,65.5,63.7,29.84,ENE,72,0.0,4.0,94,0.00,,,0.00,WeatherCatV1.02B3,2013-06-27 10:03:00,
2013-06-27 06:08:00,65.3,63.5,29.85,ENE,65,0.0,3.0,94,0.00,,,0.00,WeatherCatV1.02B3,2013-06-27 10:08:00,
2013-06-27 06:13:00,65.2,63.4,29.85,ENE,67,3.0,3.0,94,0.00,,,0.00,WeatherCatV1.02B3,2013-06-27 10:13:00,
2013-06-27 06:18:00,65.1,63.3,29.85,East,97,2.0,2.0,94,0.00,,,0.00,WeatherCatV1.02B3,2013-06-27 10:18:00,
2013-06-27 06:23:00,65.1,63.3,29.85,East,96,0.0,1.0,94,0.00,,,0.00,WeatherCatV1.02B3,2013-06-27 10:23:00,
2013-06-27 06:28:00,65.0,63.2,29.85,East,96,0.0,0.0,94,0.00,,,0.00,WeatherCatV1.02B3,2013-06-27 10:28:00,
2013-06-27 06:35:00,64.9,63.4,29.85,ENE,59,2.0,2.0,95,0.00,,,0.00,WeatherCatV1.02B3,2013-06-27 10:35:00,
2013-06-27 06:40:00,64.8,63.3,29.85,ENE,59,0.0,1.0,95,0.00,,,0.00,WeatherCatV1.02B3,2013-06-27 10:40:00,
2013-06-27 06:45:00,64.8,63.3,29.85,ENE,59,0.0,0.0,95,0.00,,,0.00,WeatherCatV1.02B3,2013-06-27 10:45:00,
2013-06-27 06:50:00,64.7,62.9,29.85,East,95,0.0,0.0,94,0.00,,,0.00,WeatherCatV1.02B3,2013-06-27 10:50:00,
2013-06-27 06:55:00,64.7,62.9,29.85,East,95,0.0,0.0,94,0.00,,,0.00,WeatherCatV1.02B3,2013-06-27 10:55:00,
2013-06-27 07:00:00,64.7,62.9,29.85,East,82,0.0,1.0,94,0.00,,,0.00,WeatherCatV1.02B3,2013-06-27 11:00:00,
2013-06-27 07:05:00,64.5,62.7,29.85,NNE,29,0.0,1.0,94,0.00,,,0.00,WeatherCatV1.02B3,2013-06-27 11:05:00,
2013-06-27 07:10:00,64.4,62.6,29.85,NNE,23,0.0,1.0,94,0.00,,,0.00,WeatherCatV1.02B3,2013-06-27 11:10:00,
2013-06-27 07:15:00,64.3,62.5,29.86,NE,36,0.0,0.0,94,0.00,,,0.00,WeatherCatV1.02B3,2013-06-27 11:15:00,
2013-06-27 07:20:00,64.2,62.4,29.86,NE,36,0.0,2.0,94,0.00,,,0.00,WeatherCatV1.02B3,2013-06-27 11:20:00,
2013-06-27 07:25:00,64.1,62.3,29.86,NE,36,0.0,2.0,94,0.00,,,0.00,WeatherCatV1.02B3,2013-06-27 11:25:00,
2013-06-27 07:30:00,64.0,62.2,29.86,East,86,0.0,1.0,94,0.00,,,0.00,WeatherCatV1.02B3,2013-06-27 11:30:00,
2013-06-27 07:35:00,64.0,62.2,29.86,ENE,76,0.0,0.0,94,0.00,,,0.00,WeatherCatV1.02B3,2013-06-27 11:35:00,
2013-06-27 07:40:00,64.0,62.2,29.85,ENE,75,0.0,1.0,94,0.00,,,0.00,WeatherCatV1.02B3,2013-06-27 11:40:00,
2013-06-27 07:45:00,64.1,62.3,29.86,ENE,76,0.0,1.0,94,0.00,,,0.00,WeatherCatV1.02B3,2013-06-27 11:45:00,
2013-06-27 07:50:00,64.1,62.3,29.85,ENE,60,0.0,1.0,94,0.00,,,0.00,WeatherCatV1.02B3,2013-06-27 11:50:00,
2013-06-27 07:55:00,64.1,62.3,29.85,ENE,61,0.0,0.0,94,0.00,,,0.00,WeatherCatV1.02B3,2013-06-27 11:55:00,
2013-06-27 08:02:00,64.1,62.3,29.86,ENE,61,0.0,0.0,94,0.00,,,0.00,WeatherCatV1.02B3,2013-06-27 12:02:00,
2013-06-27 08:07:00,64.1,62.3,29.85,ENE,60,0.0,1.0,94,0.00,,,0.00,WeatherCatV1.02B3,2013-06-27 12:07:00,
2013-06-27 08:12:00,64.3,62.5,29.85,ENE,60,0.0,1.0,94,0.00,,,0.00,WeatherCatV1.02B3,2013-06-27 12:12:00,
2013-06-27 08:19:00,64.4,62.6,29.85,ENE,60,0.0,0.0,94,0.00,,,0.00,WeatherCatV1.02B3,2013-06-27 12:19:00,
2013-06-27 08:24:00,64.4,62.6,29.85,ENE,60,0.0,1.0,94,0.00,,,0.00,WeatherCatV1.02B3,2013-06-27 12:24:00,
2013-06-27 08:29:00,64.4,62.6,29.85,ENE,69,0.0,3.0,94,0.00,,,0.00,WeatherCatV1.02B3,2013-06-27 12:29:00,
2013-06-27 08:34:00,64.3,62.5,29.86,ENE,69,0.0,1.0,94,0.00,,,0.00,WeatherCatV1.02B3,2013-06-27 12:34:00,
2013-06-27 08:39:00,64.4,62.6,29.85,ENE,69,0.0,0.0,94,0.00,,,0.00,WeatherCatV1.02B3,2013-06-27 12:39:00,
2013-06-27 08:44:00,64.4,62.6,29.85,East,83,0.0,1.0,94,0.00,,,0.00,WeatherCatV1.02B3,2013-06-27 12:44:00,
2013-06-27 08:49:00,64.4,62.6,29.85,SSE,148,0.0,4.0,94,0.00,,,0.00,WeatherCatV1.02B3,2013-06-27 12:49:00,
2013-06-27 08:54:00,64.5,62.7,29.84,NE,34,0.0,2.0,94,0.00,,,0.00,WeatherCatV1.02B3,2013-06-27 12:54:00,
2013-06-27 08:59:00,64.5,62.7,29.84,East,98,5.0,6.0,94,0.00,,,0.00,WeatherCatV1.02B3,2013-06-27 12:59:00,
2013-06-27 09:04:00,64.5,62.7,29.84,ENE,71,0.0,1.0,94,0.00,,,0.00,WeatherCatV1.02B3,2013-06-27 13:04:00,
2013-06-27 09:09:00,64.5,62.7,29.84,ENE,71,0.0,0.0,94,0.00,,,0.00,WeatherCatV1.02B3,2013-06-27 13:09:00,
2013-06-27 09:14:00,64.5,62.7,29.84,NE,39,0.0,0.0,94,0.00,,,0.00,WeatherCatV1.02B3,2013-06-27 13:14:00,
2013-06-27 09:19:00,64.5,62.7,29.85,NNE,24,0.0,1.0,94,0.00,,,0.00,WeatherCatV1.02B3,2013-06-27 13:19:00,
2013-06-27 09:24:00,64.6,62.8,29.84,NNE,25,0.0,0.0,94,0.00,,,0.00,WeatherCatV1.02B3,2013-06-27 13:24:00,
2013-06-27 09:29:00,64.5,62.7,29.84,NE,51,1.0,3.0,94,0.00,,,0.00,WeatherCatV1.02B3,2013-06-27 13:29:00,
2013-06-27 09:34:00,64.5,62.7,29.84,ENE,65,0.0,0.0,94,0.00,,,0.00,WeatherCatV1.02B3,2013-06-27 13:34:00,
2013-06-27 09:39:00,64.6,62.8,29.84,ENE,65,0.0,0.0,94,0.00,,,0.00,WeatherCatV1.02B3,2013-06-27 13:39:00,
2013-06-27 09:44:00,64.7,62.9,29.84,ENE,65,0.0,1.0,94,0.00,,,0.00,WeatherCatV1.02B3,2013-06-27 13:44:00,
2013-06-27 09:49:00,64.8,63.0,29.84,ENE,63,0.0,3.0,94,0.00,,,0.00,WeatherCatV1.02B3,2013-06-27 13:49:00,
2013-06-27 09:54:00,64.9,63.1,29.84,ESE,121,0.0,1.0,94,0.00,,,0.00,WeatherCatV1.02B3,2013-06-27 13:54:00,
2013-06-27 09:59:00,65.0,63.2,29.84,NE,47,1.0,3.0,94,0.00,,,0.00,WeatherCatV1.02B3,2013-06-27 13:59:00,
2013-06-27 10:04:00,65.1,63.0,29.84,SE,145,0.0,0.0,93,0.00,,,0.00,WeatherCatV1.02B3,2013-06-27 14:04:00,
2013-06-27 10:09:00,65.2,63.1,29.84,SE,140,0.0,0.0,93,0.00,,,0.00,WeatherCatV1.02B3,2013-06-27 14:09:00,
2013-06-27 10:14:00,65.2,63.1,29.84,SE,131,0.0,0.0,93,0.00,,,0.00,WeatherCatV1.02B3,2013-06-27 14:14:00,
2013-06-27 10:19:00,65.3,63.2,29.83,NNE,29,0.0,0.0,93,0.00,,,0.00,WeatherCatV1.02B3,2013-06-27 14:19:00,
2013-06-27 10:24:00,65.3,63.2,29.84,NNE,29,0.0,1.0,93,0.00,,,0.00,WeatherCatV1.02B3,2013-06-27 14:24:00,
2013-06-27 10:29:00,65.4,63.3,29.84,NNE,32,0.0,0.0,93,0.00,,,0.00,WeatherCatV1.02B3,2013-06-27 14:29:00,
2013-06-27 10:34:00,65.5,63.4,29.84,NNE,32,0.0,0.0,93,0.00,,,0.00,WeatherCatV1.02B3,2013-06-27 14:34:00,
2013-06-27 10:39:00,65.6,63.5,29.84,NNE,32,0.0,0.0,93,0.00,,,0.00,WeatherCatV1.02B3,2013-06-27 14:39:00,
2013-06-27 10:44:00,65.7,63.6,29.84,NNE,27,0.0,1.0,93,0.00,,,0.00,WeatherCatV1.02B3,2013-06-27 14:44:00,
2013-06-27 10:49:00,65.8,63.7,29.84,NNE,27,0.0,0.0,93,0.00,,,0.00,WeatherCatV1.02B3,2013-06-27 14:49:00,
2013-06-27 10:54:00,65.9,63.8,29.84,NE,55,0.0,1.0,93,0.00,,,0.00,WeatherCatV1.02B3,2013-06-27 14:54:00,
2013-06-27 10:59:00,65.9,63.8,29.83,NE,55,0.0,1.0,93,0.00,,,0.00,WeatherCatV1.02B3,2013-06-27 14:59:00,
2013-06-27 11:04:00,66.0,63.9,29.83,NE,55,0.0,2.0,93,0.00,,,0.00,WeatherCatV1.02B3,2013-06-27 15:04:00,
2013-06-27 11:09:00,66.2,64.1,29.83,NE,54,0.0,0.0,93,0.00,,,0.00,WeatherCatV1.02B3,2013-06-27 15:09:00,
2013-06-27 11:14:00,66.3,64.2,29.84,NE,36,0.0,0.0,93,0.00,,,0.00,WeatherCatV1.02B3,2013-06-27 15:14:00,
2013-06-27 11:19:00,66.4,64.0,29.84,NE,36,0.0,0.0,92,0.00,,,0.00,WeatherCatV1.02B3,2013-06-27 15:19:00,
2013-06-27 11:24:00,66.5,64.4,29.84,NE,36,0.0,0.0,93,0.00,,,0.00,WeatherCatV1.02B3,2013-06-27 15:24:00,
2013-06-27 11:29:00,66.7,64.6,29.83,NE,36,0.0,1.0,93,0.00,,,0.00,WeatherCatV1.02B3,2013-06-27 15:29:00,
2013-06-27 11:34:00,66.8,64.4,29.83,NE,36,0.0,1.0,92,0.00,,,0.00,WeatherCatV1.02B3,2013-06-27 15:34:00,
2013-06-27 11:39:00,67.0,64.6,29.83,NE,36,0.0,0.0,92,0.00,,,0.00,WeatherCatV1.02B3,2013-06-27 15:39:00,
2013-06-27 11:44:00,67.2,65.1,29.83,NE,36,0.0,0.0,93,0.00,,,0.00,WeatherCatV1.02B3,2013-06-27 15:44:00,
2013-06-27 11:49:00,67.5,64.8,29.83,NE,36,0.0,1.0,91,0.00,,,0.00,WeatherCatV1.02B3,2013-06-27 15:49:00,
2013-06-27 11:54:00,67.5,64.8,29.83,NE,36,0.0,0.0,91,0.00,,,0.00,WeatherCatV1.02B3,2013-06-27 15:54:00,
2013-06-27 11:59:00,67.6,65.2,29.83,NE,36,0.0,1.0,92,0.00,,,0.00,WeatherCatV1.02B3,2013-06-27 15:59:00,
2013-06-27 12:04:00,67.7,65.0,29.83,NE,36,0.0,1.0,91,0.00,,,0.00,WeatherCatV1.02B3,2013-06-27 16:04:00,
2013-06-27 12:09:00,67.8,65.4,29.83,NW,323,0.0,0.0,92,0.00,,,0.00,WeatherCatV1.02B3,2013-06-27 16:09:00,
2013-06-27 12:14:00,67.9,65.2,29.83,NW,323,0.0,0.0,91,0.00,,,0.00,WeatherCatV1.02B3,2013-06-27 16:14:00,
2013-06-27 12:19:00,68.1,65.4,29.83,NNW,327,0.0,0.0,91,0.00,,,0.00,WeatherCatV1.02B3,2013-06-27 16:19:00,
2013-06-27 12:24:00,68.2,65.5,29.83,NNW,329,0.0,1.0,91,0.00,,,0.00,WeatherCatV1.02B3,2013-06-27 16:24:00,
2013-06-27 12:29:00,68.3,65.6,29.82,NNW,329,0.0,0.0,91,0.00,,,0.00,WeatherCatV1.02B3,2013-06-27 16:29:00,
2013-06-27 12:34:00,68.6,65.9,29.83,North,0,0.0,4.0,91,0.00,,,0.00,WeatherCatV1.02B3,2013-06-27 16:34:00,
2013-06-27 12:39:00,68.6,65.5,29.82,NNE,29,0.0,1.0,90,0.00,,,0.00,WeatherCatV1.02B3,2013-06-27 16:39:00,
2013-06-27 12:44:00,68.7,65.6,29.82,NNE,33,0.0,0.0,90,0.00,,,0.00,WeatherCatV1.02B3,2013-06-27 16:44:00,
2013-06-27 12:49:00,68.9,65.8,29.82,NE,35,0.0,3.0,90,0.00,,,0.00,WeatherCatV1.02B3,2013-06-27 16:49:00,
2013-06-27 12:54:00,69.3,66.2,29.82,NE,35,0.0,0.0,90,0.00,,,0.00,WeatherCatV1.02B3,2013-06-27 16:54:00,
2013-06-27 12:59:00,69.5,66.1,29.81,NE,36,1.0,1.0,89,0.00,,,0.00,WeatherCatV1.02B3,2013-06-27 16:59:00,
2013-06-27 13:04:00,69.6,66.2,29.81,East,86,0.0,0.0,89,0.00,,,0.00,WeatherCatV1.02B3,2013-06-27 17:04:00,
2013-06-27 13:09:00,69.9,66.8,29.81,East,80,0.0,1.0,90,0.00,,,0.00,WeatherCatV1.02B3,2013-06-27 17:09:00,
2013-06-27 13:14:00,70.3,66.9,29.81,East,80,0.0,0.0,89,0.00,,,0.00,WeatherCatV1.02B3,2013-06-27 17:14:00,
2013-06-27 13:19:00,70.5,67.1,29.81,East,80,0.0,1.0,89,0.00,,,0.00,WeatherCatV1.02B3,2013-06-27 17:19:00,
2013-06-27 13:24:00,70.6,67.2,29.81,East,80,0.0,1.0,89,0.00,,,0.00,WeatherCatV1.02B3,2013-06-27 17:24:00,
2013-06-27 13:29:00,70.8,67.4,29.81,East,80,0.0,0.0,89,0.00,,,0.00,WeatherCatV1.02B3,2013-06-27 17:29:00,
2013-06-27 13:34:00,70.9,67.5,29.81,SSE,157,0.0,0.0,89,0.00,,,0.00,WeatherCatV1.02B3,2013-06-27 17:34:00,
2013-06-27 13:39:00,71.0,67.6,29.81,SSE,157,0.0,1.0,89,0.00,,,0.00,WeatherCatV1.02B3,2013-06-27 17:39:00,
2013-06-27 13:49:00,70.6,67.5,29.81,SSE,157,0.0,0.0,90,0.00,,,0.01,WeatherCatV1.02B3,2013-06-27 17:49:00,
2013-06-27 13:54:00,70.4,67.6,29.81,SSE,157,0.0,0.0,91,0.18,,,0.02,WeatherCatV1.02B3,2013-06-27 17:54:00,
2013-06-27 13:59:00,70.1,67.7,29.80,SSE,157,0.0,0.0,92,0.26,,,0.04,WeatherCatV1.02B3,2013-06-27 17:59:00,
2013-06-27 14:04:00,70.1,68.0,29.81,SSE,157,0.0,0.0,93,0.11,,,0.04,WeatherCatV1.02B3,2013-06-27 18:04:00,
2013-06-27 14:09:00,70.0,67.9,29.81,SSE,157,0.0,0.0,93,0.24,,,0.06,WeatherCatV1.02B3,2013-06-27 18:09:00,
2013-06-27 14:14:00,69.9,67.8,29.80,SSE,157,0.0,0.0,93,0.13,,,0.07,WeatherCatV1.02B3,2013-06-27 18:14:00,
2013-06-27 14:19:00,69.8,67.7,29.80,SSE,157,0.0,0.0,93,0.13,,,0.08,WeatherCatV1.02B3,2013-06-27 18:19:00,
2013-06-27 14:24:00,69.7,67.6,29.80,SSE,157,0.0,0.0,93,0.08,,,0.08,WeatherCatV1.02B3,2013-06-27 18:24:00,
2013-06-27 14:29:00,69.6,67.5,29.80,SSE,165,0.0,0.0,93,0.06,,,0.09,WeatherCatV1.02B3,2013-06-27 18:29:00,
2013-06-27 14:34:00,69.5,67.7,29.80,SSE,165,0.0,0.0,94,0.06,,,0.09,WeatherCatV1.02B3,2013-06-27 18:34:00,
2013-06-27 14:39:00,69.2,67.4,29.80,SSE,165,0.0,0.0,94,0.06,,,0.10,WeatherCatV1.02B3,2013-06-27 18:39:00,
2013-06-27 14:44:00,69.0,67.2,29.80,SSE,149,0.0,1.0,94,0.09,,,0.10,WeatherCatV1.02B3,2013-06-27 18:44:00,
2013-06-27 14:49:00,69.0,67.2,29.80,SSE,149,0.0,0.0,94,0.80,,,0.14,WeatherCatV1.02B3,2013-06-27 18:49:00,
2013-06-27 14:54:00,68.9,67.1,29.80,SSE,149,0.0,0.0,94,0.86,,,0.22,WeatherCatV1.02B3,2013-06-27 18:54:00,
2013-06-27 14:59:00,68.7,66.9,29.80,SSE,149,0.0,0.0,94,1.06,,,0.26,WeatherCatV1.02B3,2013-06-27 18:59:00,
2013-06-27 15:04:00,68.6,66.8,29.80,ESE,115,0.0,0.0,94,0.27,,,0.29,WeatherCatV1.02B3,2013-06-27 19:04:00,
2013-06-27 15:09:00,68.6,66.8,29.80,ESE,114,0.0,0.0,94,0.17,,,0.30,WeatherCatV1.02B3,2013-06-27 19:09:00,
2013-06-27 15:14:00,68.4,66.6,29.80,ESE,111,0.0,1.0,94,0.07,,,0.30,WeatherCatV1.02B3,2013-06-27 19:14:00,
2013-06-27 15:19:00,68.4,66.6,29.80,ENE,71,0.0,0.0,94,0.05,,,0.31,WeatherCatV1.02B3,2013-06-27 19:19:00,
2013-06-27 15:24:00,68.6,66.8,29.80,ENE,76,0.0,1.0,94,0.10,,,0.32,WeatherCatV1.02B3,2013-06-27 19:24:00,
2013-06-27 15:29:00,68.5,66.7,29.80,ENE,76,0.0,0.0,94,0.10,,,0.32,WeatherCatV1.02B3,2013-06-27 19:29:00,
2013-06-27 15:34:00,68.6,66.8,29.80,ENE,76,0.0,0.0,94,0.08,,,0.33,WeatherCatV1.02B3,2013-06-27 19:34:00,
2013-06-27 15:39:00,68.8,67.3,29.79,NNE,32,0.0,3.0,95,0.07,,,0.33,WeatherCatV1.02B3,2013-06-27 19:39:00,
2013-06-27 15:44:00,69.0,67.5,29.80,NNE,32,0.0,3.0,95,0.04,,,0.33,WeatherCatV1.02B3,2013-06-27 19:44:00,
2013-06-27 15:49:00,69.2,67.7,29.79,NE,43,0.0,1.0,95,0.00,,,0.33,WeatherCatV1.02B3,2013-06-27 19:49:00,
2013-06-27 15:54:00,69.1,67.6,29.79,ENE,57,0.0,3.0,95,0.00,,,0.33,WeatherCatV1.02B3,2013-06-27 19:54:00,
2013-06-27 15:59:00,69.1,67.6,29.79,SSE,147,0.0,1.0,95,0.00,,,0.33,WeatherCatV1.02B3,2013-06-27 19:59:00,
2013-06-27 16:04:00,69.2,67.7,29.79,NNE,30,0.0,0.0,95,0.00,,,0.33,WeatherCatV1.02B3,2013-06-27 20:04:00,
2013-06-27 16:09:00,69.3,67.8,29.79,NNE,17,0.0,0.0,95,0.00,,,0.33,WeatherCatV1.02B3,2013-06-27 20:09:00,
2013-06-27 16:14:00,69.2,67.7,29.79,NE,48,0.0,0.0,95,0.00,,,0.33,WeatherCatV1.02B3,2013-06-27 20:14:00,
2013-06-27 16:19:00,69.1,67.6,29.79,ENE,71,0.0,1.0,95,0.00,,,0.33,WeatherCatV1.02B3,2013-06-27 20:19:00,
2013-06-27 16:24:00,69.0,67.5,29.79,ENE,65,0.0,1.0,95,0.00,,,0.33,WeatherCatV1.02B3,2013-06-27 20:24:00,
2013-06-27 16:29:00,68.9,67.4,29.79,ENE,65,0.0,1.0,95,0.00,,,0.33,WeatherCatV1.02B3,2013-06-27 20:29:00,
2013-06-27 16:35:00,68.7,66.9,29.79,ENE,78,1.0,4.0,94,0.00,,,0.33,WeatherCatV1.02B3,2013-06-27 20:35:00,
2013-06-27 16:40:00,68.5,66.7,29.79,NE,53,2.0,4.0,94,0.00,,,0.33,WeatherCatV1.02B3,2013-06-27 20:40:00,
2013-06-27 16:45:00,68.4,66.9,29.79,ENE,77,0.0,0.0,95,0.00,,,0.33,WeatherCatV1.02B3,2013-06-27 20:45:00,
2013-06-27 16:50:00,68.3,66.8,29.78,NE,40,0.0,0.0,95,0.00,,,0.33,WeatherCatV1.02B3,2013-06-27 20:50:00,
2013-06-27 16:55:00,68.1,66.6,29.78,NE,40,0.0,1.0,95,0.00,,,0.33,WeatherCatV1.02B3,2013-06-27 20:55:00,
2013-06-27 17:00:00,67.7,66.2,29.79,NE,45,3.0,6.0,95,0.00,,,0.33,WeatherCatV1.02B3,2013-06-27 21:00:00,
2013-06-27 17:05:00,67.4,65.6,29.78,NE,35,2.0,2.0,94,0.00,,,0.33,WeatherCatV1.02B3,2013-06-27 21:05:00,
2013-06-27 17:10:00,67.2,65.7,29.78,NNW,344,0.0,4.0,95,0.00,,,0.33,WeatherCatV1.02B3,2013-06-27 21:10:00,
2013-06-27 17:15:00,67.1,65.6,29.78,NNE,20,0.0,5.0,95,0.00,,,0.33,WeatherCatV1.02B3,2013-06-27 21:15:00,
2013-06-27 17:21:00,67.0,65.5,29.79,East,93,0.0,0.0,95,0.00,,,0.33,WeatherCatV1.02B3,2013-06-27 21:21:00,
2013-06-27 17:26:00,66.8,65.3,29.79,East,90,0.0,0.0,95,0.00,,,0.33,WeatherCatV1.02B3,2013-06-27 21:26:00,
2013-06-27 17:31:00,66.8,65.3,29.79,ENE,66,0.0,4.0,95,0.00,,,0.33,WeatherCatV1.02B3,2013-06-27 21:31:00,
2013-06-27 17:36:00,66.4,64.9,29.79,NNE,22,1.0,3.0,95,0.00,,,0.33,WeatherCatV1.02B3,2013-06-27 21:36:00,
2013-06-27 17:41:00,66.3,64.8,29.79,NNE,17,2.0,4.0,95,0.00,,,0.33,WeatherCatV1.02B3,2013-06-27 21:41:00,
2013-06-27 17:46:00,66.2,64.7,29.79,NNE,17,0.0,1.0,95,0.00,,,0.33,WeatherCatV1.02B3,2013-06-27 21:46:00,
2013-06-27 17:51:00,66.2,64.7,29.79,ENE,74,0.0,0.0,95,0.00,,,0.33,WeatherCatV1.02B3,2013-06-27 21:51:00,
2013-06-27 17:56:00,66.1,64.6,29.79,ENE,70,2.0,3.0,95,0.00,,,0.33,WeatherCatV1.02B3,2013-06-27 21:56:00,
2013-06-27 18:01:00,65.9,64.4,29.79,ENE,57,0.0,1.0,95,0.00,,,0.33,WeatherCatV1.02B3,2013-06-27 22:01:00,
2013-06-27 18:06:00,65.8,64.3,29.79,NE,45,1.0,4.0,95,0.00,,,0.33,WeatherCatV1.02B3,2013-06-27 22:06:00,
2013-06-27 18:11:00,65.8,64.3,29.79,NE,45,0.0,1.0,95,0.00,,,0.33,WeatherCatV1.02B3,2013-06-27 22:11:00,
2013-06-27 18:16:00,65.7,64.2,29.79,NE,45,0.0,2.0,95,0.00,,,0.33,WeatherCatV1.02B3,2013-06-27 22:16:00,
2013-06-27 18:21:00,65.7,64.2,29.79,NE,45,0.0,1.0,95,0.00,,,0.33,WeatherCatV1.02B3,2013-06-27 22:21:00,
2013-06-27 18:26:00,65.6,64.1,29.79,ENE,74,0.0,4.0,95,0.00,,,0.33,WeatherCatV1.02B3,2013-06-27 22:26:00,
2013-06-27 18:31:00,65.4,63.9,29.79,ENE,74,0.0,0.0,95,0.00,,,0.33,WeatherCatV1.02B3,2013-06-27 22:31:00,
2013-06-27 18:36:00,65.3,63.8,29.79,NE,49,0.0,2.0,95,0.00,,,0.33,WeatherCatV1.02B3,2013-06-27 22:36:00,
2013-06-27 18:41:00,65.2,63.7,29.79,NE,34,0.0,0.0,95,0.00,,,0.33,WeatherCatV1.02B3,2013-06-27 22:41:00,
2013-06-27 18:46:00,65.1,63.6,29.79,NE,45,0.0,0.0,95,0.00,,,0.33,WeatherCatV1.02B3,2013-06-27 22:46:00,
2013-06-27 18:51:00,65.0,63.5,29.78,NE,46,0.0,0.0,95,0.00,,,0.33,WeatherCatV1.02B3,2013-06-27 22:51:00,
2013-06-27 18:56:00,64.9,63.4,29.78,NE,47,0.0,3.0,95,0.00,,,0.33,WeatherCatV1.02B3,2013-06-27 22:56:00,
2013-06-27 19:01:00,64.9,63.4,29.78,East,87,0.0,4.0,95,0.00,,,0.33,WeatherCatV1.02B3,2013-06-27 23:01:00,
2013-06-27 19:06:00,64.8,63.3,29.78,NE,56,0.0,0.0,95,0.00,,,0.33,WeatherCatV1.02B3,2013-06-27 23:06:00,
2013-06-27 19:11:00,64.7,63.2,29.78,NNE,30,0.0,4.0,95,0.00,,,0.33,WeatherCatV1.02B3,2013-06-27 23:11:00,
2013-06-27 19:16:00,64.7,63.2,29.78,NNE,30,0.0,1.0,95,0.00,,,0.33,WeatherCatV1.02B3,2013-06-27 23:16:00,
2013-06-27 19:21:00,64.6,63.1,29.78,East,82,0.0,1.0,95,0.00,,,0.33,WeatherCatV1.02B3,2013-06-27 23:21:00,
2013-06-27 19:27:00,64.4,62.9,29.78,NE,49,1.0,5.0,95,0.00,,,0.33,WeatherCatV1.02B3,2013-06-27 23:27:00,
2013-06-27 19:32:00,64.2,62.7,29.78,NE,52,0.0,0.0,95,0.00,,,0.33,WeatherCatV1.02B3,2013-06-27 23:32:00,
2013-06-27 19:37:00,64.2,62.7,29.78,SE,124,0.0,2.0,95,0.00,,,0.33,WeatherCatV1.02B3,2013-06-27 23:37:00,
2013-06-27 19:42:00,64.1,62.6,29.78,ESE,119,5.0,6.0,95,0.00,,,0.33,WeatherCatV1.02B3,2013-06-27 23:42:00,
2013-06-27 19:47:00,64.0,62.5,29.79,East,91,0.0,4.0,95,0.00,,,0.33,WeatherCatV1.02B3,2013-06-27 23:47:00,
2013-06-27 19:52:00,64.0,62.5,29.79,NE,51,0.0,3.0,95,0.00,,,0.33,WeatherCatV1.02B3,2013-06-27 23:52:00,
2013-06-27 19:57:00,63.9,62.4,29.79,ENE,65,0.0,0.0,95,0.00,,,0.33,WeatherCatV1.02B3,2013-06-27 23:57:00,
2013-06-27 20:04:00,63.9,62.4,29.79,NE,44,0.0,0.0,95,0.00,,,0.33,WeatherCatV1.02B3,2013-06-28 00:04:00,
2013-06-27 20:09:00,63.9,62.4,29.79,NE,44,0.0,0.0,95,0.00,,,0.33,WeatherCatV1.02B3,2013-06-28 00:09:00,
2013-06-27 20:14:00,63.8,62.3,29.79,NE,44,0.0,1.0,95,0.00,,,0.33,WeatherCatV1.02B3,2013-06-28 00:14:00,
2013-06-27 20:19:00,63.7,62.2,29.78,NNE,26,0.0,5.0,95,0.00,,,0.33,WeatherCatV1.02B3,2013-06-28 00:19:00,
2013-06-27 20:24:00,63.7,62.2,29.78,ENE,71,0.0,3.0,95,0.00,,,0.33,WeatherCatV1.02B3,2013-06-28 00:24:00,
2013-06-27 20:29:00,63.7,62.2,29.78,ENE,74,0.0,2.0,95,0.00,,,0.33,WeatherCatV1.02B3,2013-06-28 00:29:00,
2013-06-27 20:34:00,63.6,62.1,29.78,ESE,103,0.0,4.0,95,0.00,,,0.33,WeatherCatV1.02B3,2013-06-28 00:34:00,
2013-06-27 20:39:00,63.6,62.4,29.78,ESE,103,0.0,0.0,96,0.00,,,0.33,WeatherCatV1.02B3,2013-06-28 00:39:00,
2013-06-27 20:44:00,63.6,62.4,29.78,ESE,103,0.0,0.0,96,0.00,,,0.33,WeatherCatV1.02B3,2013-06-28 00:44:00,
2013-06-27 20:49:00,63.6,62.4,29.79,ESE,103,0.0,0.0,96,0.00,,,0.33,WeatherCatV1.02B3,2013-06-28 00:49:00,
2013-06-27 20:54:00,63.7,62.5,29.78,East,98,0.0,1.0,96,0.00,,,0.33,WeatherCatV1.02B3,2013-06-28 00:54:00,
2013-06-27 20:59:00,63.7,62.5,29.78,NE,54,0.0,2.0,96,0.00,,,0.33,WeatherCatV1.02B3,2013-06-28 00:59:00,
2013-06-27 21:04:00,63.7,62.5,29.77,NE,54,0.0,0.0,96,0.00,,,0.33,WeatherCatV1.02B3,2013-06-28 01:04:00,
2013-06-27 21:09:00,63.7,62.5,29.78,NE,51,0.0,1.0,96,0.00,,,0.33,WeatherCatV1.02B3,2013-06-28 01:09:00,
2013-06-27 21:14:00,63.6,62.4,29.78,NE,37,0.0,4.0,96,0.00,,,0.33,WeatherCatV1.02B3,2013-06-28 01:14:00,
2013-06-27 21:19:00,63.7,62.5,29.78,NE,37,0.0,0.0,96,0.00,,,0.33,WeatherCatV1.02B3,2013-06-28 01:19:00,
2013-06-27 21:24:00,63.6,62.4,29.78,NE,43,0.0,1.0,96,0.00,,,0.33,WeatherCatV1.02B3,2013-06-28 01:24:00,
2013-06-27 21:29:00,63.6,62.4,29.79,NE,43,0.0,1.0,96,0.00,,,0.33,WeatherCatV1.02B3,2013-06-28 01:29:00,
2013-06-27 21:34:00,63.6,62.4,29.79,NE,41,0.0,3.0,96,0.00,,,0.33,WeatherCatV1.02B3,2013-06-28 01:34:00,
2013-06-27 21:39:00,63.6,62.4,29.78,ENE,71,0.0,0.0,96,0.00,,,0.33,WeatherCatV1.02B3,2013-06-28 01:39:00,
2013-06-27 21:44:00,63.6,62.4,29.78,NE,41,0.0,0.0,96,0.00,,,0.33,WeatherCatV1.02B3,2013-06-28 01:44:00,
2013-06-27 21:49:00,63.6,62.4,29.78,NE,41,0.0,0.0,96,0.00,,,0.33,WeatherCatV1.02B3,2013-06-28 01:49:00,
2013-06-27 21:54:00,63.6,62.4,29.79,NNE,33,0.0,1.0,96,0.00,,,0.33,WeatherCatV1.02B3,2013-06-28 01:54:00,
2013-06-27 21:59:00,63.6,62.4,29.79,NNE,33,0.0,0.0,96,0.00,,,0.33,WeatherCatV1.02B3,2013-06-28 01:59:00,
2013-06-27 22:04:00,63.6,62.4,29.79,NNE,33,2.0,2.0,96,0.00,,,0.33,WeatherCatV1.02B3,2013-06-28 02:04:00,
2013-06-27 22:09:00,63.7,62.5,29.79,NNE,33,0.0,0.0,96,0.00,,,0.33,WeatherCatV1.02B3,2013-06-28 02:09:00,
2013-06-27 22:14:00,63.7,62.5,29.79,NNE,33,0.0,0.0,96,0.00,,,0.33,WeatherCatV1.02B3,2013-06-28 02:14:00,
2013-06-27 22:19:00,63.7,62.5,29.78,NNE,33,0.0,0.0,96,0.00,,,0.33,WeatherCatV1.02B3,2013-06-28 02:19:00,
2013-06-27 22:24:00,63.7,62.5,29.78,NNE,33,0.0,0.0,96,0.00,,,0.33,WeatherCatV1.02B3,2013-06-28 02:24:00,
2013-06-27 22:29:00,63.6,62.4,29.78,NNE,33,0.0,0.0,96,0.00,,,0.33,WeatherCatV1.02B3,2013-06-28 02:29:00,
2013-06-27 22:34:00,63.6,62.4,29.77,NNE,33,0.0,1.0,96,0.00,,,0.33,WeatherCatV1.02B3,2013-06-28 02:34:00,
2013-06-27 22:39:00,63.7,62.5,29.77,NNE,33,0.0,1.0,96,0.00,,,0.33,WeatherCatV1.02B3,2013-06-28 02:39:00,
2013-06-27 22:44:00,63.7,62.5,29.77,NNE,28,0.0,0.0,96,0.00,,,0.33,WeatherCatV1.02B3,2013-06-28 02:44:00,
2013-06-27 22:49:00,63.7,62.5,29.77,NNE,26,0.0,3.0,96,0.00,,,0.33,WeatherCatV1.02B3,2013-06-28 02:49:00,
2013-06-27 22:54:00,63.7,62.5,29.77,NNE,26,0.0,1.0,96,0.00,,,0.33,WeatherCatV1.02B3,2013-06-28 02:54:00,
2013-06-27 22:59:00,63.7,62.5,29.77,NE,34,0.0,0.0,96,0.00,,,0.33,WeatherCatV1.02B3,2013-06-28 02:59:00,
2013-06-27 23:04:00,63.7,62.5,29.76,NE,35,0.0,0.0,96,0.00,,,0.33,WeatherCatV1.02B3,2013-06-28 03:04:00,
2013-06-27 23:09:00,63.7,62.5,29.76,NE,35,1.0,1.0,96,0.00,,,0.33,WeatherCatV1.02B3,2013-06-28 03:09:00,
2013-06-27 23:14:00,63.7,62.5,29.76,NE,35,0.0,0.0,96,0.00,,,0.33,WeatherCatV1.02B3,2013-06-28 03:14:00,
2013-06-27 23:19:00,63.8,62.6,29.76,NE,34,0.0,0.0,96,0.00,,,0.33,WeatherCatV1.02B3,2013-06-28 03:19:00,
2013-06-27 23:24:00,63.8,62.6,29.76,NE,34,0.0,0.0,96,0.00,,,0.33,WeatherCatV1.02B3,2013-06-28 03:24:00,
2013-06-27 23:29:00,63.8,62.6,29.76,ENE,78,3.0,3.0,96,0.00,,,0.33,WeatherCatV1.02B3,2013-06-28 03:29:00,
2013-06-27 23:34:00,63.7,62.5,29.76,SE,137,0.0,5.0,96,0.00,,,0.33,WeatherCatV1.02B3,2013-06-28 03:34:00,
2013-06-27 23:39:00,63.7,62.5,29.76,ESE,115,0.0,4.0,96,0.00,,,0.33,WeatherCatV1.02B3,2013-06-28 03:39:00,
2013-06-27 23:44:00,63.6,62.4,29.75,East,83,1.0,2.0,96,0.00,,,0.33,WeatherCatV1.02B3,2013-06-28 03:44:00,
2013-06-27 23:49:00,63.6,62.4,29.75,East,93,0.0,3.0,96,0.00,,,0.33,WeatherCatV1.02B3,2013-06-28 03:49:00,
2013-06-27 23:54:00,63.6,62.4,29.75,NNE,33,0.0,6.0,96,0.00,,,0.33,WeatherCatV1.02B3,2013-06-28 03:54:00,
2013-06-27 23:59:00,63.6,62.4,29.76,ENE,76,0.0,3.0,96,0.00,,,0.33,WeatherCatV1.02B3,2013-06-28 03:59:00,